Latest Weather Observations for Wudinna Airport

IDS60801

Issued at 9:35 am CST Thursday 24 July 2014 (issued every 30 minutes, with the page automatically refreshed every 10 minutes)

About weather observations | Map of weather stations | Latest weather observations for SA | Other Formats
Station Details ID: 018083 Name: WUDINNA AERO Lat: -33.04 Lon: 135.45 Height: 86.4 m
Data from the previous 72 hours. | See also: Recent months at Wudinna Airport
Date/Time
CST
Temp
°C
App
Temp
°C
Dew
Point
Rel
Hum
%
Delta-T
°C
Wind Press
QNH
hPa
Press
MSL
hPa
Rain
since 9 am
mm
Dir
 
Spd
km/h
Gust
km/h
Spd
kts
Gust
kts
24/09:30am 12.8 8.2 10.9 88 1.0 WNW 26 35 14 19 1011.8 - 0.0
24/09:00am 12.8 8.5 10.7 87 1.1 WNW 24 32 13 17 1011.4 1011.5 8.0
24/08:30am 11.8 8.0 9.9 88 1.0 WNW 20 28 11 15 1011.0 - 8.0
24/08:00am 11.0 6.3 9.4 90 0.8 WNW 24 33 13 18 1010.8 - 8.0
24/07:30am 10.6 5.9 9.2 91 0.7 WNW 24 30 13 16 1010.4 - 8.0
24/07:00am 10.8 6.1 9.4 91 0.7 WNW 24 32 13 17 1010.0 - 8.0
24/06:30am 10.4 5.7 9.2 92 0.6 WNW 24 28 13 15 1009.6 - 8.0
24/06:00am 10.3 6.3 9.1 92 0.6 NW 20 26 11 14 1009.2 1009.3 8.0
24/05:30am 10.8 6.4 9.1 89 0.8 WNW 22 30 12 16 1008.8 - 8.0
24/05:00am 11.3 6.3 9.7 90 0.8 W 26 35 14 19 1008.3 - 8.0
24/04:30am 11.6 7.2 10.3 92 0.7 WNW 24 32 13 17 1008.0 - 8.0
24/04:00am 11.6 7.3 10.7 94 0.5 W 24 32 13 17 1007.8 - 7.8
24/03:30am 11.3 7.6 10.2 93 0.6 W 20 30 11 16 1007.5 - 7.0
24/03:00am 11.3 7.6 10.2 93 0.6 W 20 30 11 16 1007.2 1007.4 6.6
24/02:30am 11.5 7.4 10.2 92 0.7 W 22 30 12 16 1006.9 - 6.6
24/02:00am 11.5 6.7 10.2 92 0.7 WNW 26 33 14 18 1006.7 - 6.6
24/01:30am 11.6 6.8 10.3 92 0.7 WNW 26 33 14 18 1006.3 - 6.6
24/01:00am 11.6 5.5 10.3 92 0.7 WNW 33 43 18 23 1006.0 - 6.6
24/12:30am 11.5 5.9 10.2 92 0.7 WNW 30 41 16 22 1005.8 - 6.6
24/12:00am 11.8 6.3 10.5 92 0.7 WNW 30 44 16 24 1005.6 1005.8 6.6
 
Date/Time
CST
Temp
°C
App
Temp
°C
Dew
Point
Rel
Hum
%
Delta-T
°C
Wind Press
QNH
hPa
Press
MSL
hPa
Rain
since 9 am
mm
Dir
 
Spd
km/h
Gust
km/h
Spd
kts
Gust
kts
23/11:30pm 11.9 6.4 10.6 92 0.7 WNW 30 39 16 21 1005.5 - 6.6
23/11:00pm 11.9 6.0 10.6 92 0.7 WNW 32 44 17 24 1005.3 - 6.6
23/10:36pm 12.1 6.2 11.0 93 0.6 NW 33 52 18 28 1004.9 - 6.4
23/10:30pm 12.1 6.7 11.0 93 0.6 NW 30 39 16 21 1004.8 - 6.2
23/10:00pm 12.0 7.7 10.9 93 0.6 NW 24 32 13 17 1005.0 - 5.4
23/09:30pm 11.7 6.2 10.6 93 0.6 NNW 30 39 16 21 1004.9 - 5.4
23/09:00pm 11.3 5.3 10.2 93 0.6 NNW 32 43 17 23 1004.8 1004.9 5.2
23/08:30pm 11.1 4.5 9.9 92 0.6 N 35 46 19 25 1004.8 - 4.8
23/08:00pm 11.0 4.7 9.6 91 0.7 N 33 54 18 29 1004.7 - 4.4
23/07:59pm 10.9 4.5 9.5 91 0.7 N 33 54 18 29 1004.8 - 4.4
23/07:30pm 10.6 4.4 9.2 91 0.7 N 32 44 17 24 1005.0 - 4.2
23/07:21pm 10.6 4.2 9.2 91 0.7 N 33 52 18 28 1005.0 - 4.2
23/07:00pm 10.7 3.5 9.0 89 0.8 N 37 50 20 27 1005.2 - 3.8
23/06:31pm 11.6 5.6 8.6 82 1.5 NNW 30 54 16 29 1005.4 - 3.6
23/06:30pm 11.6 5.6 8.6 82 1.5 NNW 30 46 16 25 1005.5 - 3.6
23/06:23pm 11.9 6.2 8.4 79 1.7 N 28 46 15 25 1005.4 - 3.6
23/06:00pm 12.0 8.1 8.8 81 1.6 N 19 28 10 15 1005.3 1005.4 3.4
23/05:30pm 11.9 6.3 8.7 81 1.6 NNW 28 41 15 22 1005.5 - 3.4
23/05:15pm 12.3 6.0 8.8 79 1.8 NW 32 52 17 28 1005.7 - 3.2
23/05:00pm 12.8 6.6 9.4 80 1.7 NW 32 44 17 24 1005.5 - 3.2
23/04:30pm 14.3 9.9 8.9 70 2.7 N 22 32 12 17 1005.2 - 2.8
23/04:00pm 13.8 9.9 9.3 74 2.3 N 20 26 11 14 1005.5 - 2.8
23/03:30pm 13.8 8.5 8.4 70 2.7 N 26 37 14 20 1005.6 - 2.8
23/03:00pm 14.7 8.9 9.3 70 2.8 N 30 43 16 23 1005.8 1006.0 2.8
23/02:30pm 12.3 7.0 8.6 78 1.8 WNW 26 41 14 22 1006.9 - 2.8
23/02:00pm 13.8 10.2 10.4 80 1.8 N 20 28 11 15 1006.8 - 2.8
23/01:30pm 12.4 7.2 10.1 86 1.2 N 28 39 15 21 1007.8 - 2.8
23/01:00pm 13.7 8.3 9.6 76 2.1 N 28 39 15 21 1008.1 - 1.0
23/12:30pm 15.4 9.6 7.9 61 3.8 N 28 44 15 24 1008.6 - 0.8
23/12:00pm 15.3 7.5 6.8 57 4.2 N 37 52 20 28 1009.0 1009.1 0.8
23/11:30am 14.3 6.4 6.4 59 3.8 NNE 37 54 20 29 1009.5 - 0.8
23/11:16am 14.4 6.4 5.7 56 4.1 NNE 37 56 20 30 1009.7 - 0.8
23/11:00am 13.4 6.3 6.3 62 3.4 NNE 33 48 18 26 1010.1 - 0.8
23/10:30am 12.2 5.9 7.5 73 2.3 NNE 30 44 16 24 1010.7 - 0.8
23/10:03am 12.4 4.9 6.5 67 2.8 NNE 35 57 19 31 1011.3 - 0.2
23/10:00am 12.7 5.6 6.3 65 3.1 NNE 33 44 18 24 1011.4 - 0.0
23/09:47am 13.5 7.4 6.4 62 3.4 NNE 28 52 15 28 1011.1 - 0.0
23/09:30am 12.0 7.0 7.9 76 2.0 NNE 24 33 13 18 1011.2 - 0.0
23/09:00am 11.9 6.4 7.4 74 2.2 NNE 26 39 14 21 1011.6 1011.7 2.4
23/08:30am 11.1 6.0 7.8 80 1.6 NNE 24 32 13 17 1012.2 - 2.4
23/08:00am 10.6 5.2 7.8 83 1.4 NNE 26 35 14 19 1012.5 - 2.2
23/07:30am 10.2 5.1 7.6 84 1.3 NNE 24 37 13 20 1013.1 - 2.0
23/07:00am 10.6 4.7 7.7 82 1.4 N 28 39 15 21 1013.5 - 1.2
23/06:30am 10.5 4.8 6.8 78 1.8 NNE 26 35 14 19 1013.4 - 0.8
23/06:00am 10.2 5.6 6.7 79 1.7 NE 20 28 11 15 1013.2 1013.3 0.6
23/05:30am 10.4 6.0 7.3 81 1.5 NE 20 28 11 15 1013.8 - 0.6
23/05:00am 11.0 6.8 7.3 78 1.8 NE 19 26 10 14 1013.9 - 0.4
23/04:30am 10.9 8.2 7.4 79 1.7 NNE 11 17 6 9 1014.6 - 0.2
23/04:00am 11.9 7.9 6.8 71 2.4 NNE 17 22 9 12 1014.8 - 0.0
23/03:30am 11.5 7.1 6.4 71 2.4 N 19 24 10 13 1015.4 - 0.0
23/03:00am 12.3 7.5 4.5 59 3.6 N 19 24 10 13 1015.7 1015.9 0.0
23/02:30am 12.0 7.0 4.5 60 3.4 NNE 20 26 11 14 1016.0 - 0.0
23/02:00am 13.1 5.9 2.9 50 4.5 N 30 39 16 21 1016.0 - 0.0
23/01:30am 13.6 8.0 0.9 42 5.4 NNE 20 26 11 14 1015.8 - 0.0
23/01:00am 13.0 8.0 1.4 45 5.0 NNE 17 22 9 12 1016.0 - 0.0
23/12:30am 13.1 7.5 1.1 44 5.1 NNE 20 28 11 15 1016.5 - 0.0
23/12:00am 13.3 7.3 1.3 44 5.1 NNE 22 28 12 15 1016.8 1017.0 0.0
 
Date/Time
CST
Temp
°C
App
Temp
°C
Dew
Point
Rel
Hum
%
Delta-T
°C
Wind Press
QNH
hPa
Press
MSL
hPa
Rain
since 9 am
mm
Dir
 
Spd
km/h
Gust
km/h
Spd
kts
Gust
kts
22/11:30pm 13.8 7.8 0.8 41 5.5 NNE 22 32 12 17 1017.1 - 0.0
22/11:00pm 13.8 8.2 1.1 42 5.5 NNE 20 28 11 15 1017.3 - 0.0
22/10:30pm 13.7 8.8 1.7 44 5.2 NNE 17 24 9 13 1017.4 - 0.0
22/10:00pm 14.1 8.7 1.4 42 5.5 NNE 19 24 10 13 1017.5 - 0.0
22/09:30pm 11.7 8.2 3.7 58 3.6 NNE 11 17 6 9 1017.8 - 0.0
22/09:00pm 11.7 8.9 3.2 56 3.7 ENE 7 9 4 5 1017.7 1017.9 0.0
22/08:30pm 10.9 7.9 3.9 62 3.1 ENE 9 11 5 6 1017.9 - 0.0
22/08:00pm 10.4 8.0 4.3 66 2.7 ESE 6 7 3 4 1018.0 - 0.0
22/07:30pm 11.1 8.0 3.6 60 3.3 E 9 11 5 6 1018.3 - 0.0
22/07:00pm 10.2 6.6 5.0 70 2.4 NE 13 15 7 8 1018.0 - 0.0
22/06:30pm 11.6 8.3 4.3 61 3.3 ENE 11 13 6 7 1017.9 - 0.0
22/06:00pm 12.6 9.4 5.1 60 3.5 ENE 11 13 6 7 1018.1 1018.3 0.0
22/05:30pm 13.2 10.7 6.5 64 3.2 NE 9 11 5 6 1018.4 - 0.0
22/05:00pm 15.1 13.2 7.4 60 3.8 NE 7 11 4 6 1018.2 - 0.0
22/04:30pm 16.9 14.5 7.0 52 4.9 NE 9 13 5 7 1017.9 - 0.0
22/02:30pm 19.6 16.1 3.3 34 7.7 N 11 17 6 9 1018.5 - 0.0
22/02:00pm 19.5 15.7 1.5 30 8.2 N 11 17 6 9 1019.0 - 0.0
22/01:30pm 19.9 15.7 1.8 30 8.3 NNE 13 19 7 10 1019.0 - 0.0
22/01:00pm 19.5 14.3 2.4 32 7.9 N 19 24 10 13 1019.0 - 0.0
22/12:30pm 18.4 12.7 0.5 30 7.9 N 20 26 11 14 1020.3 - 0.0
22/12:00pm 18.0 12.2 2.3 35 7.1 N 22 32 12 17 1021.1 1021.2 0.0
22/11:30am 17.1 10.6 2.7 38 6.6 N 26 32 14 17 1021.8 - 0.0
22/11:00am 16.7 11.8 4.1 43 5.9 N 19 30 10 16 1021.9 - 0.0
22/10:30am 15.0 9.4 3.5 46 5.3 NNE 22 30 12 16 1022.1 - 0.0
22/10:00am 14.0 8.3 2.9 47 5.0 NNE 22 30 12 16 1022.2 - 0.0
22/09:30am 13.5 8.4 3.3 50 4.6 NNE 19 26 10 14 1022.2 - 0.0
22/09:00am 12.2 6.9 2.1 50 4.4 NNE 19 26 10 14 1022.0 1022.1 0.0
22/08:30am 11.2 5.9 1.7 52 4.0 NNE 19 26 10 14 1021.8 - 0.0
22/08:00am 9.5 4.1 1.4 57 3.4 NNE 19 22 10 12 1021.6 - 0.0
22/07:30am 8.9 3.9 1.1 58 3.2 NNE 17 22 9 12 1021.5 - 0.0
22/07:00am 9.1 4.0 0.8 56 3.4 NNE 17 24 9 13 1021.2 - 0.0
22/06:30am 9.3 4.2 1.0 56 3.4 NNE 17 22 9 12 1021.1 - 0.0
22/06:00am 8.3 3.3 1.2 61 2.9 NNE 17 20 9 11 1020.9 1021.0 0.0
22/05:30am 9.1 3.6 0.8 56 3.4 NNE 19 22 10 12 1020.8 - 0.0
22/05:00am 8.7 3.6 0.9 58 3.2 NNE 17 22 9 12 1020.6 - 0.0
22/04:30am 7.8 3.9 1.4 64 2.6 NNE 11 15 6 8 1020.7 - 0.0
22/04:00am 6.9 3.8 1.2 67 2.3 NE 7 15 4 8 1020.6 - 0.0
22/03:30am 7.8 2.8 1.6 65 2.5 NE 17 20 9 11 1020.7 - 0.0
22/03:00am 6.0 1.4 1.7 74 1.7 NE 15 17 8 9 1020.6 1020.7 0.0
22/02:30am 7.1 2.1 1.6 68 2.2 NNE 17 19 9 10 1020.6 - 0.0
22/02:00am 8.1 3.2 1.7 64 2.6 NNE 17 20 9 11 1020.6 - 0.0
22/01:30am 8.4 3.5 1.8 63 2.7 NNE 17 22 9 12 1020.8 - 0.0
22/01:00am 9.0 3.7 1.7 60 3.0 NNE 19 24 10 13 1020.8 - 0.0
22/12:30am 8.8 3.9 1.7 61 2.9 NNE 17 20 9 11 1021.1 - 0.0
22/12:00am 8.2 3.8 2.7 68 2.3 NE 15 20 8 11 1021.3 1021.4 0.0
 
Date/Time
CST
Temp
°C
App
Temp
°C
Dew
Point
Rel
Hum
%
Delta-T
°C
Wind Press
QNH
hPa
Press
MSL
hPa
Rain
since 9 am
mm
Dir
 
Spd
km/h
Gust
km/h
Spd
kts
Gust
kts
21/11:30pm 8.3 3.9 2.8 68 2.3 NNE 15 19 8 10 1021.4 - 0.0
21/11:00pm 7.2 3.6 3.1 75 1.7 NNE 11 15 6 8 1021.4 - 0.0
21/10:30pm 7.5 3.2 3.0 73 1.9 NE 15 19 8 10 1021.5 - 0.0
21/10:00pm 8.3 4.0 3.0 69 2.3 NE 15 19 8 10 1021.6 - 0.0
21/09:30pm 7.3 3.7 3.0 74 1.8 NE 11 13 6 7 1021.6 - 0.0
21/09:00pm 7.8 3.9 3.5 74 1.8 NE 13 17 7 9 1021.6 1021.7 0.0
21/08:30pm 7.5 3.3 3.9 78 1.6 NE 15 17 8 9 1021.3 - 0.0
21/08:00pm 7.1 3.4 4.2 82 1.3 NNE 13 15 7 8 1021.1 - 0.0
21/07:30pm 7.1 3.4 4.2 82 1.3 NE 13 15 7 8 1021.0 - 0.0
21/07:00pm 7.4 4.1 4.4 81 1.3 NNE 11 13 6 7 1020.7 - 0.0
21/06:30pm 8.3 4.8 5.4 82 1.3 NNE 13 17 7 9 1020.3 - 0.0
21/06:00pm 10.5 7.9 5.9 73 2.1 NE 9 11 5 6 1020.0 1020.1 0.0
21/05:30pm 14.3 12.0 5.7 56 4.1 ESE 7 11 4 6 1019.4 - 0.0
21/05:00pm 14.9 12.2 7.5 61 3.7 S 11 13 6 7 1019.1 - 0.0
21/04:30pm 17.0 15.8 4.7 44 5.9 CALM 0 7 0 4 1018.9 - 0.0
21/04:00pm 16.8 14.3 4.8 45 5.7 NNE 7 9 4 5 1018.6 - 0.0
21/03:30pm 16.5 12.8 4.5 45 5.7 NE 13 17 7 9 1018.3 - 0.0
21/03:00pm 16.2 12.3 5.5 49 5.1 NNE 15 20 8 11 1018.1 1018.3 0.0
21/02:30pm 15.6 12.0 4.9 49 5.1 NNE 13 19 7 10 1018.2 - 0.0
21/02:00pm 15.0 11.4 5.2 52 4.6 N 13 19 7 10 1018.9 - 0.0
21/01:30pm 14.9 10.4 4.3 49 4.9 N 17 20 9 11 1019.3 - 0.0
21/01:00pm 15.2 11.2 4.9 50 4.9 N 15 20 8 11 1019.8 - 0.0
21/12:30pm 14.5 10.4 4.5 51 4.7 N 15 20 8 11 1020.2 - 0.0
21/12:00pm 15.3 12.6 3.5 45 5.4 NNW 7 20 4 11 1020.4 1020.5 0.0
21/11:30am 14.0 9.5 4.0 51 4.6 N 17 26 9 14 1020.8 - 0.0
21/11:00am 14.6 11.8 5.1 53 4.5 N 9 15 5 8 1021.0 - 0.0
21/10:30am 14.1 11.0 5.7 57 4.0 N 11 17 6 9 1021.1 - 0.0
21/10:00am 11.2 7.8 4.2 62 3.1 NE 11 17 6 9 1020.9 - 0.0

Other Formats:

Comma delimited format used in spreadsheet applications
http://www.bom.gov.au/fwo/IDS60801/IDS60801.95654.axf

JavaScript Object Notation format (JSON) in row-major order
http://www.bom.gov.au/fwo/IDS60801/IDS60801.95654.json